»·PEaware :: DAL1987 KLAS-KSAN

DAL1987 :: KLAS-KSAN

FLIGHT INFORMATION

Flight Status: Arrived
Operator:
Delta Air Lines
More flights by this operator :: More flights under this callsign
Pilot: Hayden F. (3713)
Aircraft: MCDONNELL-DOUGLAS MD-88
(MD88)
More flights by this aircraft type
Origin: KLAS McCarran Intl
United States
Destination: KSAN San Diego Intl-Lindbergh
United States
More flights between these airports :: More routes between these airports
Route: BOACH8 LVELL LUCKI1
File this flight plan on PilotEdge
Remarks:
Altitude:
(Current/Filed)
30,000ft
Speed:
(Current/Filed)
410kts
Departed: 05-Jun-20 07:43 PM
Arrived: 05-Jun-20 08:33 PM
Distance/Time
Traveled:
225nm/0:49
Distance/Time
To Go:
Arrived

Flight Plot

Page will automatically refresh every two minutes.

Flight plan parsing failed; only flown route is shown


Map Options




Map Legend


Flown Route
Filed Route
Departure Airport
Arrival Airport
Navaid (VOR, NDB)
Fix

Horizontal Profiles

Position Reports

Time Latitude Longitude Heading Altitude Ground
Speed
05-Jun-20 19:07 36.080781 -115.140568 135 2076ft 0kts
05-Jun-20 19:08 36.080781 -115.140568 135 2076ft 0kts
05-Jun-20 19:09 36.080781 -115.140568 135 2076ft 0kts
05-Jun-20 19:10 36.080781 -115.140568 135 2076ft 0kts
05-Jun-20 19:11 36.080781 -115.140568 135 2076ft 0kts
05-Jun-20 19:12 36.080781 -115.140568 135 2076ft 0kts
05-Jun-20 19:13 36.080781 -115.140568 135 2076ft 0kts
05-Jun-20 19:14 36.080781 -115.140568 135 2076ft 0kts
05-Jun-20 19:15 36.080781 -115.140568 135 2076ft 0kts
05-Jun-20 19:16 36.080781 -115.140568 135 2076ft 0kts
05-Jun-20 19:17 36.080781 -115.140568 135 2075ft 0kts
05-Jun-20 19:18 36.080781 -115.140568 135 2075ft 0kts
05-Jun-20 19:19 36.080781 -115.140568 135 2075ft 0kts
05-Jun-20 19:20 36.080781 -115.140568 135 2075ft 0kts
05-Jun-20 19:21 36.080781 -115.140568 135 2075ft 0kts
05-Jun-20 19:22 36.080781 -115.140568 135 2075ft 0kts
05-Jun-20 19:23 36.080781 -115.140568 135 2075ft 0kts
05-Jun-20 19:24 36.080781 -115.140568 135 2075ft 0kts
05-Jun-20 19:25 36.081060 -115.140556 188 2074ft 1kts
05-Jun-20 19:26 36.081082 -115.140553 187 2074ft 0kts
05-Jun-20 19:27 36.081082 -115.140553 187 2074ft 0kts
05-Jun-20 19:28 36.081082 -115.140553 187 2074ft 0kts
05-Jun-20 19:29 36.081026 -115.140575 205 2074ft 2kts
05-Jun-20 19:30 36.079443 -115.141595 180 2081ft 8kts
05-Jun-20 19:31 36.079118 -115.141585 179 2082ft 0kts
05-Jun-20 19:32 36.079118 -115.141585 179 2082ft 0kts
05-Jun-20 19:33 36.078281 -115.142191 265 2085ft 16kts
05-Jun-20 19:34 36.078460 -115.146356 274 2099ft 10kts
05-Jun-20 19:35 36.078775 -115.151364 270 2115ft 6kts
05-Jun-20 19:36 36.082276 -115.155353 335 2123ft 19kts
05-Jun-20 19:37 36.086519 -115.157779 336 2122ft 17kts
05-Jun-20 19:38 36.091481 -115.155398 23 2101ft 18kts
05-Jun-20 19:39 36.095767 -115.152939 25 2082ft 15kts
05-Jun-20 19:40 36.097953 -115.152380 296 2077ft 0kts
05-Jun-20 19:41 36.097953 -115.152380 296 2077ft 0kts
05-Jun-20 19:42 36.096503 -115.154730 204 2086ft 45kts
05-Jun-20 19:43 36.065072 -115.172721 199 2801ft 161kts
05-Jun-20 19:44 36.019968 -115.200604 203 4566ft 197kts
05-Jun-20 19:45 35.987014 -115.258999 239 6836ft 213kts
05-Jun-20 19:46 35.961248 -115.324011 222 8359ft 229kts
05-Jun-20 19:47 35.899458 -115.345137 155 9815ft 262kts
05-Jun-20 19:48 35.822579 -115.317081 167 11570ft 311kts
05-Jun-20 19:49 35.735214 -115.301776 172 14129ft 324kts
05-Jun-20 19:50 35.644592 -115.295313 180 16502ft 333kts
05-Jun-20 19:52 35.551258 -115.299640 180 18593ft 339kts
05-Jun-20 19:53 35.456424 -115.303395 180 20420ft 345kts
05-Jun-20 19:54 35.360019 -115.307179 180 22060ft 351kts
05-Jun-20 19:55 35.261454 -115.311062 180 23362ft 359kts
05-Jun-20 19:56 35.160981 -115.315024 180 24415ft 365kts
05-Jun-20 19:57 35.063374 -115.318877 180 25210ft 371kts
05-Jun-20 19:58 34.959737 -115.322939 181 26000ft 373kts
05-Jun-20 19:59 34.855965 -115.327049 182 26730ft 375kts
05-Jun-20 20:00 34.752551 -115.342381 194 27416ft 379kts
05-Jun-20 20:01 34.653354 -115.386577 197 28034ft 381kts
05-Jun-20 20:02 34.553229 -115.430450 196 28480ft 387kts
05-Jun-20 20:03 34.451519 -115.474838 196 29032ft 390kts
05-Jun-20 20:04 34.350119 -115.519064 196 29663ft 387kts
05-Jun-20 20:05 34.254857 -115.581713 207 29768ft 393kts
05-Jun-20 20:06 34.158320 -115.640398 197 29767ft 386kts
05-Jun-20 20:07 34.058462 -115.686586 197 29754ft 385kts
05-Jun-20 20:07 33.975322 -115.725696 197 29699ft 386kts
05-Jun-20 20:08 33.875269 -115.773493 197 29669ft 387kts
05-Jun-20 20:10 33.759372 -115.830441 197 29525ft 386kts
05-Jun-20 20:10 33.677569 -115.868455 197 27836ft 372kts
05-Jun-20 20:11 33.583823 -115.912312 197 25974ft 355kts
05-Jun-20 20:13 33.476348 -115.942460 196 25182ft 347kts
05-Jun-20 20:13 33.421042 -116.016934 236 23996ft 382kts
05-Jun-20 20:14 33.378751 -116.132966 240 22304ft 377kts
05-Jun-20 20:15 33.335634 -116.243706 223 20707ft 353kts
05-Jun-20 20:16 33.255261 -116.299569 200 18800ft 334kts
05-Jun-20 20:17 33.172184 -116.346961 202 16769ft 329kts
05-Jun-20 20:18 33.090867 -116.394326 203 14877ft 321kts
05-Jun-20 20:19 33.012589 -116.440268 209 13106ft 309kts
05-Jun-20 20:20 32.947825 -116.501931 222 11659ft 290kts
05-Jun-20 20:21 32.887891 -116.562832 222 10236ft 276kts
05-Jun-20 20:22 32.831099 -116.620093 223 9054ft 257kts
05-Jun-20 20:23 32.779755 -116.671773 223 8101ft 248kts
05-Jun-20 20:24 32.743384 -116.740989 242 6927ft 247kts
05-Jun-20 20:25 32.710996 -116.810640 243 6077ft 243kts
05-Jun-20 20:26 32.687105 -116.882689 251 4994ft 235kts
05-Jun-20 20:27 32.671437 -116.952676 272 4307ft 217kts
05-Jun-20 20:28 32.691322 -117.020793 289 3167ft 219kts
05-Jun-20 20:29 32.709348 -117.089536 285 2202ft 196kts
05-Jun-20 20:30 32.721966 -117.141470 284 1057ft 150kts
05-Jun-20 20:31 32.733107 -117.187867 285 20ft 126kts
05-Jun-20 20:32 32.735725 -117.202101 196 16ft 0kts
05-Jun-20 20:33 32.735649 -117.202227 253 16ft 5kts
05-Jun-20 20:34 32.734379 -117.205527 184 16ft 9kts
05-Jun-20 20:35 32.732579 -117.205376 175 15ft 0kts
05-Jun-20 20:36 32.732528 -117.205371 175 15ft 0kts
05-Jun-20 20:37 32.732528 -117.205371 175 15ft 0kts
05-Jun-20 20:38 32.732528 -117.205371 175 15ft 0kts

Navigation Log

Ident Type
Flight plan parsing failed, navigation log unavailable